Time;durP1;ratioP1;P1;durP2;ratioP2;P2;SDS_P1;SDS_P2;PMS_P1;PMS_P2;Temp;Humidity;BMP_temperature;BMP_pressure;BME280_temperature;BME280_humidity;BME280_pressure;Samples;Min_cycle;Max_cycle;Signal;HPM_P1;HPM_P2
2023/06/30 00:01:06;;;;;;;5.45;5.35;;;;;;;-141.02;100.00;106967.91;5132970;27;20588;-60
2023/06/30 00:03:33;;;;;;;5.10;5.00;;;;;;;-141.02;100.00;106967.91;5133315;27;20351;-60
2023/06/30 00:06:42;;;;;;;5.40;5.30;;;;;;;-141.02;100.00;107218.31;5132872;28;20228;-61
2023/06/30 00:12:32;;;;;;;5.07;4.97;;;;;;;-141.02;100.00;107468.69;5135408;27;20214;-68
2023/06/30 00:18:20;;;;;;;4.80;4.70;;;;;;;-141.02;100.00;107969.53;5137238;27;20187;-61
2023/06/30 00:21:31;;;;;;;4.47;4.38;;;;;;;-141.02;100.00;107971.50;5137390;27;20221;-69
2023/06/30 00:24:04;;;;;;;4.20;4.10;;;;;;;-141.02;100.00;107971.50;5137524;27;20193;-60
2023/06/30 00:26:31;;;;;;;4.22;4.13;;;;;;;-141.02;100.00;107971.50;5136849;27;20216;-69
2023/06/30 00:29:01;;;;;;;4.40;4.30;;;;;;;-141.02;100.00;107971.50;5137237;27;20206;-60
2023/06/30 00:32:03;;;;;;;4.00;3.90;;;;;;;-141.02;100.00;107971.50;5136873;27;20646;-68
2023/06/30 00:34:30;;;;;;;4.05;3.95;;;;;;;-141.02;100.00;107971.50;5136824;27;20571;-61
2023/06/30 00:36:57;;;;;;;4.55;4.45;;;;;;;-141.02;100.00;107971.50;5137109;27;20202;-60
2023/06/30 00:43:30;;;;;;;4.00;3.90;;;;;;;-141.02;100.00;107971.50;5136528;27;20258;-66
2023/06/30 00:46:49;;;;;;;4.00;3.90;;;;;;;-141.02;100.00;107971.50;5136841;27;20227;-60
2023/06/30 00:49:18;;;;;;;4.60;4.50;;;;;;;-141.02;100.00;107971.50;5136589;27;20650;-60
2023/06/30 00:51:45;;;;;;;5.22;5.13;;;;;;;-141.02;100.00;107971.50;5136471;27;20235;-60
2023/06/30 00:54:13;;;;;;;5.00;4.90;;;;;;;-141.02;100.00;107971.50;5137110;27;20264;-60
2023/06/30 00:56:40;;;;;;;4.97;4.88;;;;;;;-141.02;100.00;107971.50;5136834;27;20192;-61
2023/06/30 00:59:36;;;;;;;5.05;4.95;;;;;;;-141.02;100.00;107971.50;5136637;27;20273;-60
2023/06/30 01:05:33;;;;;;;5.10;5.00;;;;;;;-141.02;100.00;107971.50;5136380;27;20247;-61
2023/06/30 01:08:06;;;;;;;5.10;5.00;;;;;;;-141.02;100.00;107971.50;5136317;27;20277;-61
2023/06/30 01:10:34;;;;;;;5.25;5.15;;;;;;;-141.02;100.00;107971.50;5136523;27;20196;-64
2023/06/30 01:13:03;;;;;;;5.50;5.40;;;;;;;-141.02;100.00;107971.50;5136327;27;20193;-61
2023/06/30 01:15:31;;;;;;;5.80;5.70;;;;;;;-141.02;100.00;107969.53;5136042;27;20650;-60
2023/06/30 01:18:01;;;;;;;6.10;6.00;;;;;;;-141.02;100.00;107969.53;5136014;27;20654;-60
2023/06/30 01:20:32;;;;;;;5.88;5.78;;;;;;;-141.02;100.00;107969.53;5136242;27;20188;-64
2023/06/30 01:23:07;;;;;;;6.20;6.10;;;;;;;-141.02;100.00;107719.09;5136312;27;20271;-60
2023/06/30 01:25:52;;;;;;;5.70;5.60;;;;;;;-141.02;100.00;107719.09;5136024;27;20219;-60
2023/06/30 01:28:19;;;;;;;5.80;5.70;;;;;;;-141.02;100.00;107719.09;5136068;27;20222;-66
2023/06/30 01:34:08;;;;;;;5.60;5.50;;;;;;;-141.02;100.00;107719.09;5135764;27;20195;-63
2023/06/30 01:36:36;;;;;;;5.90;5.80;;;;;;;-141.02;100.00;107719.09;5135867;27;20195;-61
2023/06/30 01:42:26;;;;;;;5.85;5.75;;;;;;;-141.02;100.00;107719.09;5135408;27;20243;-60
2023/06/30 01:44:53;;;;;;;6.05;5.95;;;;;;;-141.02;100.00;107719.09;5135483;27;20188;-60
2023/06/30 01:47:20;;;;;;;5.72;5.63;;;;;;;-141.02;100.00;107719.09;5135654;27;20238;-63
2023/06/30 01:49:48;;;;;;;6.10;6.00;;;;;;;-141.02;100.00;107719.09;5135420;27;20192;-61
2023/06/30 01:52:16;;;;;;;5.90;5.80;;;;;;;-141.02;100.00;107719.09;5135651;27;20201;-62
2023/06/30 01:54:43;;;;;;;5.80;5.70;;;;;;;-141.02;100.00;107719.09;5135619;27;20220;-60
2023/06/30 01:57:11;;;;;;;5.63;5.53;;;;;;;-141.02;100.00;107719.09;5135257;27;20199;-67
2023/06/30 01:59:38;;;;;;;5.60;5.50;;;;;;;-141.02;100.00;107719.09;5135433;27;20192;-61
2023/06/30 02:02:05;;;;;;;5.47;5.38;;;;;;;-141.02;100.00;107719.09;5135437;27;20188;-61
2023/06/30 02:04:32;;;;;;;5.50;5.40;;;;;;;-141.02;100.00;107719.09;5135433;27;20188;-61
2023/06/30 02:06:59;;;;;;;5.78;5.68;;;;;;;-141.02;100.00;107969.53;5135298;27;20228;-60
2023/06/30 02:09:28;;;;;;;5.00;4.90;;;;;;;-141.02;100.00;107969.53;5135044;27;20570;-60
2023/06/30 02:12:38;;;;;;;5.03;4.93;;;;;;;-141.02;100.00;107969.53;5135240;27;20200;-66
2023/06/30 02:15:06;;;;;;;5.00;4.90;;;;;;;-141.02;100.00;107969.53;5134857;27;20200;-60
2023/06/30 02:18:14;;;;;;;4.90;4.80;;;;;;;-141.02;100.00;107969.53;5135152;27;20220;-64
2023/06/30 02:20:41;;;;;;;4.80;4.70;;;;;;;-141.02;100.00;107969.53;5134859;27;20188;-60
2023/06/30 02:23:08;;;;;;;4.70;4.60;;;;;;;-141.02;100.00;107969.53;5134981;27;20235;-60
2023/06/30 02:26:03;;;;;;;4.50;4.40;;;;;;;-141.02;100.00;107971.50;5134891;27;20189;-64
2023/06/30 02:31:52;;;;;;;4.60;4.50;;;;;;;-141.02;100.00;107971.50;5134801;27;20272;-60
2023/06/30 02:34:19;;;;;;;3.80;3.70;;;;;;;-141.02;100.00;107971.50;5134489;27;20196;-65
2023/06/30 02:36:48;;;;;;;3.90;3.80;;;;;;;-141.02;100.00;107971.50;5134741;27;20189;-61
2023/06/30 02:39:15;;;;;;;3.90;3.80;;;;;;;-141.02;100.00;107971.50;5134452;27;20563;-60
2023/06/30 02:41:44;;;;;;;3.70;3.60;;;;;;;-141.02;100.00;107971.50;5134312;27;20189;-60
2023/06/30 02:44:10;;;;;;;3.80;3.70;;;;;;;-141.02;100.00;107971.50;5134518;27;20318;-62
2023/06/30 02:46:37;;;;;;;3.60;3.50;;;;;;;-141.02;100.00;107971.50;5134138;27;20310;-68
2023/06/30 02:49:04;;;;;;;4.00;3.90;;;;;;;-141.02;100.00;107971.50;5134521;27;20204;-61
2023/06/30 02:51:31;;;;;;;4.32;4.22;;;;;;;-141.02;100.00;107971.50;5134176;27;20192;-60
2023/06/30 02:54:25;;;;;;;4.00;3.90;;;;;;;-141.02;100.00;107971.50;5134451;27;20193;-61
2023/06/30 02:56:53;;;;;;;3.60;3.50;;;;;;;-141.02;100.00;107971.50;5134056;27;20663;-60
2023/06/30 02:59:20;;;;;;;3.40;3.40;;;;;;;-141.02;100.00;107971.50;5134004;27;20193;-61
2023/06/30 03:01:47;;;;;;;3.70;3.60;;;;;;;-141.02;100.00;107971.50;5133987;27;20192;-60
2023/06/30 03:05:02;;;;;;;3.47;3.40;;;;;;;-141.02;100.00;107971.50;5134224;27;20188;-60
2023/06/30 03:07:52;;;;;;;3.60;3.50;;;;;;;-141.02;100.00;107971.50;5134197;27;20250;-60
2023/06/30 03:10:19;;;;;;;3.22;3.22;;;;;;;-141.02;100.00;107971.50;5133624;27;20192;-61
2023/06/30 03:16:09;;;;;;;3.65;3.55;;;;;;;-141.02;100.00;107971.50;5133732;27;20188;-60
2023/06/30 03:18:36;;;;;;;3.60;3.50;;;;;;;-141.02;100.00;107971.50;5133985;27;20202;-61
2023/06/30 03:21:03;;;;;;;3.72;3.63;;;;;;;-141.02;100.00;107971.50;5133951;27;20198;-60
2023/06/30 03:23:29;;;;;;;3.60;3.50;;;;;;;-141.02;100.00;107971.50;5133535;27;20193;-60
2023/06/30 03:25:56;;;;;;;3.60;3.50;;;;;;;-141.02;100.00;107971.50;5133482;27;20202;-60
2023/06/30 03:28:23;;;;;;;3.20;3.20;;;;;;;-141.02;100.00;107971.50;5133428;27;20188;-60
2023/06/30 03:31:37;;;;;;;3.20;3.20;;;;;;;-141.02;100.00;107971.50;5133810;27;20195;-60
2023/06/30 03:34:05;;;;;;;3.20;3.20;;;;;;;-141.02;100.00;107971.50;5133432;27;20654;-65
2023/06/30 03:36:32;;;;;;;3.20;3.20;;;;;;;-141.02;100.00;107971.50;5133795;27;20193;-60
2023/06/30 03:38:59;;;;;;;4.05;3.95;;;;;;;-141.02;100.00;107971.50;5133639;27;20196;-61
2023/06/30 03:41:26;;;;;;;5.80;5.70;;;;;;;-141.02;100.00;107971.50;5133670;27;20223;-61
2023/06/30 03:43:53;;;;;;;8.30;8.10;;;;;;;-141.02;100.00;107971.50;5133341;27;20228;-62
2023/06/30 03:46:20;;;;;;;10.30;10.00;;;;;;;-141.02;100.00;107971.50;5132791;27;20322;-61
2023/06/30 03:48:47;;;;;;;11.35;11.05;;;;;;;-141.02;100.00;107468.69;5132938;27;20202;-61
2023/06/30 03:51:15;;;;;;;12.40;12.00;;;;;;;-141.02;100.00;106717.56;5133503;27;20219;-66
2023/06/30 03:53:43;;;;;;;13.15;12.75;;;;;;;-141.02;100.00;105966.59;5133118;27;20697;-61
2023/06/30 03:56:10;;;;;;;14.20;13.70;;;;;;;-141.02;100.00;104715.34;5133158;27;20203;-66
2023/06/30 03:58:37;;;;;;;13.90;13.40;;;;;;;-141.02;100.00;103714.66;5133295;27;20200;-62
2023/06/30 04:01:04;;;;;;;14.82;14.23;;;;;;;-141.02;100.00;103464.53;5132946;27;20269;-60
2023/06/30 04:03:32;;;;;;;15.55;14.85;;;;;;;-141.02;100.00;102464.22;5133074;27;20192;-65
2023/06/30 04:05:59;;;;;;;15.90;15.20;;;;;;;-141.02;100.00;101714.16;5132807;27;20599;-62
2023/06/30 04:08:28;;;;;;;16.65;15.85;;;;;;;-141.02;100.00;101714.16;5133287;28;20206;-61
2023/06/30 04:10:56;;;;;;;17.15;16.35;;;;;;;-141.02;100.00;101964.16;5133174;28;20192;-61
2023/06/30 04:13:23;;;;;;;17.17;16.38;;;;;;;-141.02;100.00;101714.16;5133174;28;20204;-62
2023/06/30 04:15:50;;;;;;;16.67;15.88;;;;;;;-141.02;100.00;101464.19;5133148;28;20616;-62
2023/06/30 04:18:17;;;;;;;17.25;16.35;;;;;;;-141.02;100.00;100464.44;5133181;28;20203;-66
2023/06/30 04:20:44;;;;;;;17.70;16.70;;;;;;;-141.02;100.00;99714.81;5133183;28;20196;-64
2023/06/30 04:23:11;;;;;;;18.20;17.10;;;;;;;-141.02;100.00;98715.56;5133085;28;20188;-63
2023/06/30 04:25:39;;;;;;;18.20;17.10;;;;;;;-141.02;100.00;97716.59;5132952;28;20202;-62
2023/06/30 04:28:06;;;;;;;18.50;17.30;;;;;;;-141.02;100.00;97217.22;5133039;27;20647;-65
2023/06/30 04:30:33;;;;;;;18.52;17.23;;;;;;;-141.02;99.05;95969.13;5132689;28;20577;-64
2023/06/30 04:33:00;;;;;;;19.35;17.85;;;;;;;-141.02;92.42;95220.47;5132741;28;20662;-65
2023/06/30 04:35:27;;;;;;;20.15;18.52;;;;;;;-141.02;90.62;93973.06;5132625;28;20581;-63
2023/06/30 04:37:54;;;;;;;20.00;18.40;;;;;;;-141.02;88.96;93224.84;5132982;28;20196;-61
2023/06/30 04:40:21;;;;;;;20.17;18.58;;;;;;;-141.02;85.67;92227.47;5132715;27;20192;-60
2023/06/30 04:42:49;;;;;;;20.50;18.90;;;;;;;-141.02;84.75;92227.47;5132703;27;20730;-61
2023/06/30 04:45:16;;;;;;;21.05;19.38;;;;;;;-141.02;84.30;91728.88;5132591;28;20197;-61
2023/06/30 04:47:44;;;;;;;20.70;19.10;;;;;;;-141.02;84.88;90731.94;5132773;28;20259;-61
2023/06/30 04:50:11;;;;;;;20.58;18.98;;;;;;;-141.02;86.09;90482.72;5132801;28;20275;-61
2023/06/30 04:52:38;;;;;;;19.95;18.35;;;;;;;-141.02;83.96;90731.94;5132914;27;20193;-61
2023/06/30 04:55:05;;;;;;;20.33;18.73;;;;;;;-141.02;87.96;90482.72;5132855;28;20271;-68
2023/06/30 05:00:56;;;;;;;19.80;18.20;;;;;;;-141.02;85.63;90731.94;5136441;27;20180;-62
2023/06/30 05:03:23;;;;;;;19.80;18.20;;;;;;;-141.02;85.21;90731.94;5136602;27;20192;-61
2023/06/30 05:05:50;;;;;;;19.08;17.67;;;;;;;-141.02;87.79;90482.72;5136752;27;20707;-65
2023/06/30 05:08:17;;;;;;;18.77;17.38;;;;;;;-141.02;92.08;88987.97;5136510;27;20258;-61
2023/06/30 05:10:44;;;;;;;18.10;16.75;;;;;;;-141.02;96.38;90482.72;5136544;27;20245;-61
2023/06/30 05:13:11;;;;;;;17.90;16.50;;;;;;;-141.02;97.44;90731.94;5136084;27;20658;-64
2023/06/30 05:15:38;;;;;;;17.88;16.48;;;;;;;-141.02;93.80;89735.28;5136389;27;20192;-61
2023/06/30 05:18:07;;;;;;;18.15;16.75;;;;;;;-141.02;96.05;90731.94;5136030;27;20192;-60
2023/06/30 05:20:36;;;;;;;19.02;17.52;;;;;;;-141.02;90.60;89486.16;5136342;27;20192;-61
2023/06/30 05:23:03;;;;;;;18.63;17.05;;;;;;;-141.02;93.58;90482.72;5136037;27;20196;-61
2023/06/30 05:25:30;;;;;;;19.08;17.58;;;;;;;-141.02;91.24;90482.72;5135814;27;20192;-61
2023/06/30 05:27:59;;;;;;;18.75;17.25;;;;;;;-141.02;92.96;90731.94;5136084;27;20276;-66
2023/06/30 05:30:32;;;;;;;18.75;17.25;;;;;;;-141.02;93.36;90233.56;5135779;27;20634;-65
2023/06/30 05:33:00;;;;;;;18.42;16.92;;;;;;;-141.02;94.53;90233.56;5136093;27;20662;-61
2023/06/30 05:35:34;;;;;;;18.52;16.92;;;;;;;-141.02;94.08;89486.16;5135949;27;20609;-62
2023/06/30 05:38:01;;;;;;;18.30;16.70;;;;;;;-141.02;96.17;88738.88;5135592;27;20203;-61
2023/06/30 05:40:31;;;;;;;17.05;15.75;;;;;;;-141.02;100.00;88489.84;5135886;27;20245;-63
2023/06/30 05:43:04;;;;;;;16.85;15.57;;;;;;;-141.02;100.00;88738.88;5134674;27;20266;-67
2023/06/30 05:45:32;;;;;;;16.80;15.60;;;;;;;-141.02;100.00;89486.16;5135863;27;20273;-62
2023/06/30 05:48:01;;;;;;;16.38;15.18;;;;;;;-141.02;100.00;88240.81;5135762;27;20224;-60
2023/06/30 05:50:31;;;;;;;15.95;14.85;;;;;;;-141.02;100.00;88987.97;5135713;27;20192;-62
2023/06/30 05:53:03;;;;;;;15.98;14.88;;;;;;;-141.02;100.00;88489.84;5135255;27;20192;-63
2023/06/30 05:55:31;;;;;;;15.70;14.70;;;;;;;-141.02;100.00;89486.16;5135371;27;20193;-60
2023/06/30 05:58:01;;;;;;;14.60;13.70;;;;;;;-141.02;100.00;92476.78;5135506;27;20193;-65
2023/06/30 06:00:31;;;;;;;15.63;14.55;;;;;;;-141.02;100.00;91479.63;5135531;27;20192;-61
2023/06/30 06:03:02;;;;;;;16.40;15.30;;;;;;;-141.02;100.00;89984.41;5135334;27;20192;-61
2023/06/30 06:05:32;;;;;;;16.27;15.18;;;;;;;-141.02;100.00;90482.72;5135126;27;20194;-61
2023/06/30 06:08:02;;;;;;;16.00;14.90;;;;;;;-141.02;100.00;91479.63;5135225;27;20220;-61
2023/06/30 06:10:31;;;;;;;15.98;14.88;;;;;;;-141.02;100.00;90482.72;5134444;27;20201;-61
2023/06/30 06:12:58;;;;;;;15.95;14.85;;;;;;;-141.02;100.00;90731.94;5135178;27;20196;-60
2023/06/30 06:15:31;;;;;;;16.40;15.20;;;;;;;-141.02;100.00;90482.72;5134879;27;20243;-62
2023/06/30 06:18:01;;;;;;;16.67;15.38;;;;;;;-141.02;100.00;89984.41;5135228;27;20227;-63
2023/06/30 06:20:31;;;;;;;16.30;15.10;;;;;;;-141.02;100.00;90731.94;5135354;27;20228;-60
2023/06/30 06:22:58;;;;;;;16.65;15.43;;;;;;;-141.02;100.00;90233.56;5135094;27;20192;-62
2023/06/30 06:25:35;;;;;;;17.77;16.38;;;;;;;-141.02;100.00;90981.13;5134983;27;20273;-61
2023/06/30 06:28:02;;;;;;;18.08;16.48;;;;;;;-141.02;100.00;89735.28;5134944;27;20277;-61
2023/06/30 06:30:30;;;;;;;18.05;16.45;;;;;;;-141.02;100.00;89486.16;5134560;27;20192;-60
2023/06/30 06:33:03;;;;;;;18.02;16.45;;;;;;;-141.02;100.00;90233.56;5134881;27;20735;-61
2023/06/30 06:35:33;;;;;;;18.05;16.45;;;;;;;-141.02;100.00;89735.28;5134452;27;20569;-63
2023/06/30 06:38:04;;;;;;;18.80;17.30;;;;;;;-141.02;100.00;89735.28;5134789;27;20227;-61
2023/06/30 06:40:35;;;;;;;17.95;16.38;;;;;;;-141.02;100.00;89984.41;5134615;27;20231;-63
2023/06/30 06:43:03;;;;;;;18.17;16.58;;;;;;;-141.02;98.74;89735.28;5134389;27;20285;-63
2023/06/30 06:45:36;;;;;;;18.20;16.70;;;;;;;-141.02;100.00;88987.97;5134320;27;20245;-60
2023/06/30 06:48:20;;;;;;;17.42;16.02;;;;;;;-141.02;100.00;90233.56;5134482;27;20285;-63
2023/06/30 06:50:48;;;;;;;17.75;16.25;;;;;;;-141.02;100.00;91230.38;5134072;27;20192;-62
2023/06/30 06:53:19;;;;;;;19.17;17.38;;;;;;;-141.02;95.08;90233.56;5134191;27;20192;-62
2023/06/30 06:55:49;;;;;;;19.35;17.65;;;;;;;-141.02;93.34;90233.56;5134065;27;20184;-68
2023/06/30 06:58:16;;;;;;;20.20;18.30;;;;;;;-141.02;92.71;89984.41;5134383;27;20650;-64
2023/06/30 07:00:44;;;;;;;19.98;18.08;;;;;;;-141.02;94.62;90731.94;5134377;27;20658;-61
2023/06/30 07:03:11;;;;;;;20.13;18.23;;;;;;;-141.02;92.15;89984.41;5134290;27;20199;-65
2023/06/30 07:05:45;;;;;;;20.27;18.27;;;;;;;-141.02;90.30;89735.28;5134258;27;20203;-63
2023/06/30 07:08:12;;;;;;;20.42;18.42;;;;;;;-141.02;92.78;90233.56;5133735;27;20221;-67
2023/06/30 07:10:40;;;;;;;20.33;18.33;;;;;;;-141.02;91.82;89735.28;5133883;27;20192;-69
2023/06/30 07:13:08;;;;;;;19.90;17.95;;;;;;;-141.02;92.08;89735.28;5133724;27;20629;-62
2023/06/30 07:15:35;;;;;;;20.58;18.58;;;;;;;-141.02;89.96;89735.28;5134056;27;20189;-61
2023/06/30 07:18:09;;;;;;;19.90;18.00;;;;;;;-141.02;90.57;90233.56;5133713;27;20196;-62
2023/06/30 07:20:37;;;;;;;20.50;18.50;;;;;;;-141.02;88.80;90482.72;5133554;27;20580;-63
2023/06/30 07:23:06;;;;;;;20.77;18.77;;;;;;;-141.02;86.99;90233.56;5134051;27;20227;-69
2023/06/30 07:25:36;;;;;;;21.52;19.42;;;;;;;-141.02;86.14;89984.41;5133521;27;20249;-67
2023/06/30 07:28:06;;;;;;;21.38;19.27;;;;;;;-141.02;83.82;89237.03;5133463;27;20272;-62
2023/06/30 07:30:37;;;;;;;21.25;19.15;;;;;;;-141.02;81.88;89735.28;5133752;27;20264;-64
2023/06/30 07:33:06;;;;;;;21.77;19.67;;;;;;;-141.02;83.85;90482.72;5133796;27;20261;-62
2023/06/30 07:35:33;;;;;;;21.80;19.60;;;;;;;-141.02;81.76;90233.56;5133743;27;20373;-69
2023/06/30 07:38:00;;;;;;;22.50;20.20;;;;;;;-141.02;77.82;88987.97;5133515;27;20199;-61
2023/06/30 07:40:27;;;;;;;22.20;19.95;;;;;;;-141.02;76.56;88240.81;5133340;27;20713;-68
2023/06/30 07:42:54;;;;;;;21.65;19.45;;;;;;;-141.02;76.67;88240.81;5133414;27;20228;-60
2023/06/30 07:45:21;;;;;;;22.23;20.02;;;;;;;-141.02;75.19;89486.16;5133305;27;20242;-62
2023/06/30 07:47:50;;;;;;;22.30;20.00;;;;;;;-141.02;76.64;89486.16;5133345;27;20224;-69
2023/06/30 07:50:17;;;;;;;22.35;20.05;;;;;;;-141.02;72.21;88738.88;5133532;27;20249;-63
2023/06/30 07:52:45;;;;;;;22.88;20.58;;;;;;;-141.02;71.38;88489.84;5133643;27;20247;-69
2023/06/30 07:55:15;;;;;;;23.38;20.98;;;;;;;-141.02;71.67;87493.84;5133473;27;20681;-63
2023/06/30 07:57:43;;;;;;;22.55;20.25;;;;;;;-141.02;72.93;87742.81;5133099;27;20567;-60
2023/06/30 08:00:12;;;;;;;22.95;20.65;;;;;;;-141.02;73.40;87244.88;5133319;27;20196;-67
2023/06/30 08:02:39;;;;;;;22.65;20.35;;;;;;;-141.02;70.99;86747.00;5133612;27;20188;-63
2023/06/30 08:05:08;;;;;;;24.25;21.95;;;;;;;-141.02;73.04;88489.84;5133035;27;20245;-61
2023/06/30 08:07:35;;;;;;;23.40;21.02;;;;;;;-141.02;71.04;88240.81;5133278;27;20252;-61
2023/06/30 08:10:03;;;;;;;23.05;20.75;;;;;;;-141.02;74.24;88489.84;5133266;28;20247;-60
2023/06/30 08:12:29;;;;;;;24.05;21.65;;;;;;;-141.02;70.48;87493.84;5132968;27;20253;-61
2023/06/30 08:14:56;;;;;;;24.13;21.83;;;;;;;-141.02;74.49;88987.97;5132924;28;20196;-61
2023/06/30 08:17:23;;;;;;;24.50;22.10;;;;;;;-141.02;69.91;88489.84;5132875;28;20227;-66
2023/06/30 08:19:51;;;;;;;24.50;22.10;;;;;;;-141.02;65.14;86249.22;5133193;27;20236;-68
2023/06/30 08:22:21;;;;;;;24.80;22.30;;;;;;;-141.02;68.67;86995.94;5133009;28;20551;-64
2023/06/30 08:24:48;;;;;;;23.20;20.90;;;;;;;-141.02;72.77;87244.88;5133121;28;20193;-64
2023/06/30 08:27:16;;;;;;;23.23;20.90;;;;;;;-141.02;66.45;85005.03;5133236;27;20655;-65
2023/06/30 08:29:44;;;;;;;23.58;21.17;;;;;;;-141.02;66.48;86249.22;5132797;28;20571;-65
2023/06/30 08:32:11;;;;;;;23.95;21.45;;;;;;;-141.02;64.19;83512.63;5132742;27;20192;-64
2023/06/30 08:34:38;;;;;;;24.30;21.90;;;;;;;-141.02;65.45;84507.50;5136341;27;20196;-61
2023/06/30 08:37:06;;;;;;;24.00;21.60;;;;;;;-141.02;69.31;85502.66;5136880;27;20203;-65
2023/06/30 08:39:34;;;;;;;24.10;21.70;;;;;;;-141.02;66.15;83761.31;5137067;27;20200;-60
2023/06/30 08:42:01;;;;;;;24.48;22.08;;;;;;;-141.02;64.96;84258.75;5137112;27;20231;-69
2023/06/30 08:44:32;;;;;;;23.30;20.95;;;;;;;-141.02;67.27;85751.50;5136580;27;20239;-66
2023/06/30 08:47:02;;;;;;;23.85;21.45;;;;;;;-141.02;66.01;85751.50;5136731;27;20249;-65
2023/06/30 08:49:31;;;;;;;23.60;21.20;;;;;;;-141.02;66.94;85005.03;5136941;27;20239;-70
2023/06/30 08:51:59;;;;;;;23.30;21.00;;;;;;;-141.02;66.33;85005.03;5137266;27;20344;-64
2023/06/30 08:54:28;;;;;;;24.48;22.10;;;;;;;-141.02;64.91;85751.50;5136538;27;20197;-67
2023/06/30 08:57:00;;;;;;;23.70;21.30;;;;;;;-141.02;63.71;85005.03;5136727;27;20577;-65
2023/06/30 08:59:28;;;;;;;23.88;21.48;;;;;;;-141.02;62.09;84010.03;5136715;27;20193;-62
2023/06/30 09:01:58;;;;;;;24.27;21.98;;;;;;;-141.02;66.21;86000.34;5136348;27;20249;-62
2023/06/30 09:04:26;;;;;;;24.02;21.73;;;;;;;-141.02;69.12;87244.88;5136416;27;20553;-60
2023/06/30 09:06:53;;;;;;;23.92;21.63;;;;;;;-141.02;63.69;85502.66;5136281;27;20652;-60
2023/06/30 09:09:26;;;;;;;24.10;21.70;;;;;;;-141.02;61.65;84507.50;5136419;27;20224;-60
2023/06/30 09:11:54;;;;;;;23.98;21.58;;;;;;;-141.02;60.76;82766.69;5136228;27;20185;-61
2023/06/30 09:14:23;;;;;;;24.40;21.95;;;;;;;-141.02;61.10;81772.31;5136455;27;20630;-60
2023/06/30 09:16:50;;;;;;;24.33;21.92;;;;;;;-141.02;60.55;81772.31;5136449;27;20200;-60
2023/06/30 09:19:17;;;;;;;24.30;21.90;;;;;;;-141.02;59.04;81772.31;5136283;27;20245;-63
2023/06/30 09:21:44;;;;;;;23.20;20.90;;;;;;;-141.02;59.37;80032.88;5136322;27;20228;-60
2023/06/30 09:24:11;;;;;;;23.38;21.08;;;;;;;-141.02;57.60;80778.25;5135845;27;20188;-61
2023/06/30 09:26:39;;;;;;;23.67;21.38;;;;;;;-141.02;55.87;79784.44;5135898;27;20196;-60
2023/06/30 09:29:09;;;;;;;23.55;21.25;;;;;;;-141.02;60.61;82020.88;5136063;27;20284;-67
2023/06/30 09:31:38;;;;;;;23.85;21.45;;;;;;;-141.02;56.28;79039.28;5136127;27;20267;-63
2023/06/30 09:34:12;;;;;;;23.55;21.25;;;;;;;-141.02;55.83;76804.81;5135807;27;20223;-63
2023/06/30 09:36:47;;;;;;;23.13;20.83;;;;;;;-141.02;55.63;76556.59;5135903;27;20192;-60
2023/06/30 09:39:14;;;;;;;23.45;21.05;;;;;;;-141.02;55.17;78542.63;5135998;27;20184;-64
2023/06/30 09:41:43;;;;;;;23.60;21.20;;;;;;;-141.02;53.66;77549.47;5135826;27;20196;-60
2023/06/30 09:44:10;;;;;;;24.92;22.42;;;;;;;-141.02;58.89;78542.63;5134702;27;20264;-61
2023/06/30 09:46:46;;;;;;;23.88;21.42;;;;;;;-141.02;53.94;75564.03;5135067;27;20242;-60
2023/06/30 09:49:23;;;;;;;24.15;21.65;;;;;;;-141.02;56.82;76804.81;5135777;27;20212;-60
2023/06/30 09:51:50;;;;;;;24.77;22.27;;;;;;;-141.02;56.62;74819.81;5135430;27;20236;-60
2023/06/30 09:54:18;;;;;;;24.20;21.80;;;;;;;-141.02;55.64;77301.22;5135724;27;20233;-60
2023/06/30 09:56:45;;;;;;;24.65;22.23;;;;;;;-141.02;54.40;76308.44;5135523;27;20232;-61
2023/06/30 09:59:12;;;;;;;24.92;22.48;;;;;;;-141.02;54.66;72588.06;5135290;27;20647;-61
2023/06/30 10:01:42;;;;;;;24.38;21.98;;;;;;;-141.02;55.39;72588.06;5135509;27;20573;-60
2023/06/30 10:04:09;;;;;;;24.38;21.98;;;;;;;-141.02;54.20;71348.81;5135441;27;20196;-64
2023/06/30 10:06:38;;;;;;;24.05;21.65;;;;;;;-141.02;57.50;74819.81;5135494;27;20277;-62
2023/06/30 10:09:07;;;;;;;24.67;22.17;;;;;;;-141.02;53.70;74819.81;5135504;27;20277;-63
2023/06/30 10:11:35;;;;;;;24.65;22.15;;;;;;;-141.02;53.69;74323.72;5135378;27;20239;-61
2023/06/30 10:14:02;;;;;;;25.00;22.50;;;;;;;-141.02;49.17;70357.75;5135230;27;20200;-60
2023/06/30 10:16:30;;;;;;;25.33;22.83;;;;;;;-141.02;51.67;73331.81;5134976;27;20249;-66
2023/06/30 10:19:02;;;;;;;25.58;23.08;;;;;;;-141.02;49.42;70853.25;5135029;27;20221;-68
2023/06/30 10:21:29;;;;;;;25.05;22.65;;;;;;;-141.02;52.68;73331.81;5134927;27;20231;-64
2023/06/30 10:23:58;;;;;;;25.33;22.83;;;;;;;-141.02;52.52;72588.06;5135099;27;20196;-60
2023/06/30 10:26:26;;;;;;;25.30;22.80;;;;;;;-141.02;53.27;74075.72;5135093;27;20223;-64
2023/06/30 10:28:53;;;;;;;24.73;22.30;;;;;;;-141.02;52.47;74819.81;5134861;27;20224;-69
2023/06/30 10:31:21;;;;;;;28.25;25.55;;;;;;;-141.02;51.05;73827.72;5134587;27;20211;-61
2023/06/30 10:33:48;;;;;;;26.02;23.42;;;;;;;-141.02;50.31;72340.16;5134605;27;20662;-68
2023/06/30 10:36:18;;;;;;;25.45;22.95;;;;;;;-141.02;54.44;72340.16;5134872;27;20199;-60
2023/06/30 10:38:46;;;;;;;24.90;22.50;;;;;;;-141.02;57.15;72092.31;5134946;27;20192;-60
2023/06/30 10:41:17;;;;;;;24.90;22.50;;;;;;;-141.02;59.62;74075.72;5134548;27;20203;-61
2023/06/30 10:44:06;;;;;;;24.92;22.52;;;;;;;-141.02;56.71;71596.63;5134291;27;20267;-63
2023/06/30 10:46:52;;;;;;;24.90;22.50;;;;;;;-141.02;54.96;70110.03;5134251;27;20231;-61
2023/06/30 10:49:30;;;;;;;25.15;22.65;;;;;;;-141.02;53.82;71596.63;5135264;27;20224;-69
2023/06/30 10:52:00;;;;;;;24.60;22.20;;;;;;;-141.02;52.53;71101.03;5134535;27;20184;-61
2023/06/30 10:54:28;;;;;;;25.15;22.65;;;;;;;-141.02;52.95;70110.03;5134508;27;20245;-67
2023/06/30 10:57:06;;;;;;;24.80;22.30;;;;;;;-141.02;57.13;72092.31;5133955;27;20193;-61
2023/06/30 10:59:39;;;;;;;24.75;22.30;;;;;;;-141.02;55.43;73083.88;5134159;27;20187;-61
2023/06/30 11:02:26;;;;;;;24.00;21.60;;;;;;;-141.02;53.17;73827.72;5134110;27;20283;-69
2023/06/30 11:04:53;;;;;;;23.88;21.58;;;;;;;-141.02;53.90;73331.81;5133983;27;20231;-61
2023/06/30 11:07:27;;;;;;;24.88;22.38;;;;;;;-141.02;52.69;73827.72;5133983;27;20658;-63
2023/06/30 11:09:59;;;;;;;25.88;23.33;;;;;;;-141.02;54.69;74571.75;5134101;27;20208;-61
2023/06/30 11:12:27;;;;;;;24.55;22.15;;;;;;;-141.02;55.10;72588.06;5133801;27;20201;-60
2023/06/30 11:14:55;;;;;;;25.10;22.70;;;;;;;-141.02;54.71;71596.63;5133985;27;20189;-60
2023/06/30 11:17:23;;;;;;;25.35;22.92;;;;;;;-141.02;53.21;71101.03;5133998;27;20199;-61
2023/06/30 11:20:10;;;;;;;25.08;22.67;;;;;;;-141.02;54.93;71101.03;5133758;27;20659;-67
2023/06/30 11:22:39;;;;;;;24.92;22.55;;;;;;;-141.02;56.00;71844.47;5133723;27;20646;-61
2023/06/30 11:25:10;;;;;;;24.77;22.38;;;;;;;-141.02;55.11;72835.97;5133558;27;20192;-60
2023/06/30 11:27:38;;;;;;;25.05;22.65;;;;;;;-141.02;55.57;74075.72;5133875;27;20188;-62
2023/06/30 11:30:06;;;;;;;25.13;22.70;;;;;;;-141.02;54.96;74571.75;5133646;27;20220;-61
2023/06/30 11:32:37;;;;;;;25.67;23.17;;;;;;;-141.02;50.63;73083.88;5133413;27;20197;-65
2023/06/30 11:35:07;;;;;;;25.60;23.10;;;;;;;-141.02;51.47;72340.16;5133813;27;20184;-72
2023/06/30 11:37:36;;;;;;;24.90;22.50;;;;;;;-141.02;56.15;73331.81;5133437;27;20184;-62
2023/06/30 11:40:06;;;;;;;25.30;22.80;;;;;;;-141.02;50.85;71348.81;5133891;27;20193;-61
2023/06/30 11:42:36;;;;;;;25.77;23.27;;;;;;;-141.02;51.98;72835.97;5133868;27;20240;-68
2023/06/30 11:45:04;;;;;;;25.88;23.38;;;;;;;-141.02;49.82;66396.38;5133700;27;20217;-60